sensor_id;sensor_type;location;lat;lon;timestamp;P1;durP1;ratioP1;P2;durP2;ratioP2
10801;SDS011;5453;50.852;7.102;2023-05-15T00:01:32;2.47;;;1.85;;
10801;SDS011;5453;50.852;7.102;2023-05-15T00:04:05;2.38;;;1.70;;
10801;SDS011;5453;50.852;7.102;2023-05-15T00:06:37;3.00;;;2.00;;
10801;SDS011;5453;50.852;7.102;2023-05-15T00:09:11;2.60;;;1.95;;
10801;SDS011;5453;50.852;7.102;2023-05-15T00:11:44;4.18;;;1.80;;
10801;SDS011;5453;50.852;7.102;2023-05-15T00:14:16;2.08;;;1.65;;
10801;SDS011;5453;50.852;7.102;2023-05-15T00:16:48;2.83;;;1.95;;
10801;SDS011;5453;50.852;7.102;2023-05-15T00:19:21;3.33;;;1.92;;
10801;SDS011;5453;50.852;7.102;2023-05-15T00:21:54;3.25;;;1.92;;
10801;SDS011;5453;50.852;7.102;2023-05-15T00:24:28;2.67;;;2.03;;
10801;SDS011;5453;50.852;7.102;2023-05-15T00:27:00;2.20;;;1.77;;
10801;SDS011;5453;50.852;7.102;2023-05-15T00:29:34;3.25;;;2.10;;
10801;SDS011;5453;50.852;7.102;2023-05-15T00:32:07;2.72;;;1.83;;
10801;SDS011;5453;50.852;7.102;2023-05-15T00:34:41;2.80;;;1.92;;
10801;SDS011;5453;50.852;7.102;2023-05-15T00:37:13;3.10;;;1.85;;
10801;SDS011;5453;50.852;7.102;2023-05-15T00:39:49;3.15;;;2.05;;
10801;SDS011;5453;50.852;7.102;2023-05-15T00:42:22;4.90;;;2.65;;
10801;SDS011;5453;50.852;7.102;2023-05-15T00:44:55;4.05;;;2.40;;
10801;SDS011;5453;50.852;7.102;2023-05-15T00:47:29;2.78;;;1.92;;
10801;SDS011;5453;50.852;7.102;2023-05-15T00:50:03;3.47;;;2.25;;
10801;SDS011;5453;50.852;7.102;2023-05-15T00:52:37;3.75;;;2.20;;
10801;SDS011;5453;50.852;7.102;2023-05-15T00:55:12;5.03;;;2.63;;
10801;SDS011;5453;50.852;7.102;2023-05-15T00:57:44;5.03;;;3.08;;
10801;SDS011;5453;50.852;7.102;2023-05-15T01:00:18;4.53;;;2.83;;
10801;SDS011;5453;50.852;7.102;2023-05-15T01:02:52;3.95;;;2.72;;
10801;SDS011;5453;50.852;7.102;2023-05-15T01:05:25;4.07;;;2.40;;
10801;SDS011;5453;50.852;7.102;2023-05-15T01:08:00;3.75;;;2.67;;
10801;SDS011;5453;50.852;7.102;2023-05-15T01:10:39;3.15;;;2.15;;
10801;SDS011;5453;50.852;7.102;2023-05-15T01:13:14;3.45;;;2.30;;
10801;SDS011;5453;50.852;7.102;2023-05-15T01:15:51;3.42;;;2.42;;
10801;SDS011;5453;50.852;7.102;2023-05-15T01:18:26;3.45;;;2.20;;
10801;SDS011;5453;50.852;7.102;2023-05-15T01:21:19;4.32;;;2.63;;
10801;SDS011;5453;50.852;7.102;2023-05-15T01:28:08;3.08;;;2.28;;
10801;SDS011;5453;50.852;7.102;2023-05-15T01:30:44;2.90;;;1.95;;
10801;SDS011;5453;50.852;7.102;2023-05-15T01:33:22;2.42;;;2.00;;
10801;SDS011;5453;50.852;7.102;2023-05-15T01:36:06;3.75;;;1.83;;
10801;SDS011;5453;50.852;7.102;2023-05-15T01:38:46;3.05;;;2.03;;
10801;SDS011;5453;50.852;7.102;2023-05-15T01:41:25;3.25;;;2.45;;
10801;SDS011;5453;50.852;7.102;2023-05-15T01:44:03;3.65;;;2.42;;
10801;SDS011;5453;50.852;7.102;2023-05-15T01:46:40;3.75;;;2.10;;
10801;SDS011;5453;50.852;7.102;2023-05-15T01:49:17;3.60;;;2.45;;
10801;SDS011;5453;50.852;7.102;2023-05-15T01:51:58;3.22;;;2.10;;
10801;SDS011;5453;50.852;7.102;2023-05-15T01:54:38;3.28;;;2.15;;
10801;SDS011;5453;50.852;7.102;2023-05-15T01:57:13;4.15;;;2.75;;
10801;SDS011;5453;50.852;7.102;2023-05-15T01:59:50;3.53;;;2.42;;
10801;SDS011;5453;50.852;7.102;2023-05-15T02:02:23;4.40;;;2.72;;
10801;SDS011;5453;50.852;7.102;2023-05-15T02:04:59;5.40;;;2.60;;
10801;SDS011;5453;50.852;7.102;2023-05-15T02:07:33;5.75;;;2.60;;
10801;SDS011;5453;50.852;7.102;2023-05-15T02:10:06;4.78;;;2.50;;
10801;SDS011;5453;50.852;7.102;2023-05-15T02:12:40;4.10;;;2.42;;
10801;SDS011;5453;50.852;7.102;2023-05-15T02:15:15;3.22;;;2.55;;
10801;SDS011;5453;50.852;7.102;2023-05-15T02:17:50;3.53;;;2.47;;
10801;SDS011;5453;50.852;7.102;2023-05-15T02:20:23;4.75;;;2.60;;
10801;SDS011;5453;50.852;7.102;2023-05-15T02:22:59;6.22;;;3.03;;
10801;SDS011;5453;50.852;7.102;2023-05-15T02:25:33;7.47;;;4.05;;
10801;SDS011;5453;50.852;7.102;2023-05-15T02:28:16;8.77;;;4.57;;
10801;SDS011;5453;50.852;7.102;2023-05-15T02:31:06;11.15;;;5.45;;
10801;SDS011;5453;50.852;7.102;2023-05-15T02:33:46;9.68;;;5.70;;
10801;SDS011;5453;50.852;7.102;2023-05-15T02:36:27;16.77;;;7.25;;
10801;SDS011;5453;50.852;7.102;2023-05-15T02:39:03;14.32;;;7.43;;
10801;SDS011;5453;50.852;7.102;2023-05-15T02:41:37;13.73;;;7.75;;
10801;SDS011;5453;50.852;7.102;2023-05-15T02:44:11;13.52;;;7.32;;
10801;SDS011;5453;50.852;7.102;2023-05-15T02:46:47;23.48;;;9.40;;
10801;SDS011;5453;50.852;7.102;2023-05-15T02:49:21;19.08;;;8.65;;
10801;SDS011;5453;50.852;7.102;2023-05-15T02:51:54;19.73;;;8.57;;
10801;SDS011;5453;50.852;7.102;2023-05-15T02:54:26;17.35;;;8.20;;
10801;SDS011;5453;50.852;7.102;2023-05-15T02:56:59;18.52;;;7.85;;
10801;SDS011;5453;50.852;7.102;2023-05-15T02:59:32;17.88;;;9.02;;
10801;SDS011;5453;50.852;7.102;2023-05-15T03:02:07;23.77;;;10.43;;
10801;SDS011;5453;50.852;7.102;2023-05-15T03:04:39;25.08;;;10.13;;
10801;SDS011;5453;50.852;7.102;2023-05-15T03:07:12;23.75;;;10.30;;
10801;SDS011;5453;50.852;7.102;2023-05-15T03:09:46;28.00;;;10.77;;
10801;SDS011;5453;50.852;7.102;2023-05-15T03:12:18;29.60;;;11.52;;
10801;SDS011;5453;50.852;7.102;2023-05-15T03:14:50;25.75;;;10.82;;
10801;SDS011;5453;50.852;7.102;2023-05-15T03:17:24;30.30;;;12.30;;
10801;SDS011;5453;50.852;7.102;2023-05-15T03:19:57;30.08;;;11.88;;
10801;SDS011;5453;50.852;7.102;2023-05-15T03:22:30;33.45;;;13.20;;
10801;SDS011;5453;50.852;7.102;2023-05-15T03:25:02;29.40;;;12.73;;
10801;SDS011;5453;50.852;7.102;2023-05-15T03:27:35;30.40;;;12.52;;
10801;SDS011;5453;50.852;7.102;2023-05-15T03:30:08;33.78;;;13.35;;
10801;SDS011;5453;50.852;7.102;2023-05-15T03:32:42;30.13;;;12.98;;
10801;SDS011;5453;50.852;7.102;2023-05-15T03:35:15;34.70;;;14.23;;
10801;SDS011;5453;50.852;7.102;2023-05-15T03:37:47;33.53;;;14.05;;
10801;SDS011;5453;50.852;7.102;2023-05-15T03:40:20;33.67;;;13.68;;
10801;SDS011;5453;50.852;7.102;2023-05-15T03:42:52;37.83;;;15.25;;
10801;SDS011;5453;50.852;7.102;2023-05-15T03:45:25;39.85;;;16.58;;
10801;SDS011;5453;50.852;7.102;2023-05-15T03:47:59;37.42;;;15.35;;
10801;SDS011;5453;50.852;7.102;2023-05-15T03:50:32;36.95;;;15.38;;
10801;SDS011;5453;50.852;7.102;2023-05-15T03:53:04;42.20;;;18.00;;
10801;SDS011;5453;50.852;7.102;2023-05-15T03:55:37;41.33;;;17.17;;
10801;SDS011;5453;50.852;7.102;2023-05-15T03:58:12;41.28;;;17.33;;
10801;SDS011;5453;50.852;7.102;2023-05-15T04:00:45;49.10;;;18.65;;
10801;SDS011;5453;50.852;7.102;2023-05-15T04:03:19;41.75;;;16.65;;
10801;SDS011;5453;50.852;7.102;2023-05-15T04:05:51;50.42;;;17.75;;
10801;SDS011;5453;50.852;7.102;2023-05-15T04:08:24;46.45;;;18.15;;
10801;SDS011;5453;50.852;7.102;2023-05-15T04:10:58;45.53;;;17.65;;
10801;SDS011;5453;50.852;7.102;2023-05-15T04:13:31;41.28;;;16.42;;
10801;SDS011;5453;50.852;7.102;2023-05-15T04:16:04;39.55;;;15.65;;
10801;SDS011;5453;50.852;7.102;2023-05-15T04:18:38;35.30;;;15.50;;
10801;SDS011;5453;50.852;7.102;2023-05-15T04:21:11;41.75;;;16.25;;
10801;SDS011;5453;50.852;7.102;2023-05-15T04:23:43;37.17;;;15.48;;
10801;SDS011;5453;50.852;7.102;2023-05-15T04:26:15;41.30;;;16.80;;
10801;SDS011;5453;50.852;7.102;2023-05-15T04:28:48;38.63;;;14.70;;
10801;SDS011;5453;50.852;7.102;2023-05-15T04:31:21;34.10;;;14.73;;
10801;SDS011;5453;50.852;7.102;2023-05-15T04:33:58;31.98;;;13.88;;
10801;SDS011;5453;50.852;7.102;2023-05-15T04:36:30;42.53;;;17.10;;
10801;SDS011;5453;50.852;7.102;2023-05-15T04:39:04;36.13;;;15.05;;
10801;SDS011;5453;50.852;7.102;2023-05-15T04:41:37;36.97;;;15.30;;
10801;SDS011;5453;50.852;7.102;2023-05-15T04:44:11;37.75;;;14.77;;
10801;SDS011;5453;50.852;7.102;2023-05-15T04:46:46;36.10;;;15.80;;
10801;SDS011;5453;50.852;7.102;2023-05-15T04:49:21;38.17;;;15.45;;
10801;SDS011;5453;50.852;7.102;2023-05-15T04:51:54;34.90;;;15.27;;
10801;SDS011;5453;50.852;7.102;2023-05-15T04:54:26;41.72;;;16.63;;
10801;SDS011;5453;50.852;7.102;2023-05-15T04:56:58;41.25;;;17.40;;
10801;SDS011;5453;50.852;7.102;2023-05-15T04:59:31;41.35;;;17.52;;
10801;SDS011;5453;50.852;7.102;2023-05-15T05:02:03;44.63;;;17.65;;
10801;SDS011;5453;50.852;7.102;2023-05-15T05:04:40;40.15;;;16.55;;
10801;SDS011;5453;50.852;7.102;2023-05-15T05:07:15;40.95;;;17.27;;
10801;SDS011;5453;50.852;7.102;2023-05-15T05:09:48;44.47;;;17.80;;
10801;SDS011;5453;50.852;7.102;2023-05-15T05:12:20;43.53;;;17.30;;
10801;SDS011;5453;50.852;7.102;2023-05-15T05:14:53;51.38;;;20.17;;
10801;SDS011;5453;50.852;7.102;2023-05-15T05:17:25;48.42;;;18.02;;
10801;SDS011;5453;50.852;7.102;2023-05-15T05:20:02;50.28;;;20.48;;
10801;SDS011;5453;50.852;7.102;2023-05-15T05:22:38;52.60;;;20.40;;
10801;SDS011;5453;50.852;7.102;2023-05-15T05:25:11;51.80;;;20.52;;
10801;SDS011;5453;50.852;7.102;2023-05-15T05:27:43;44.22;;;17.85;;
10801;SDS011;5453;50.852;7.102;2023-05-15T05:30:16;47.67;;;18.08;;
10801;SDS011;5453;50.852;7.102;2023-05-15T05:32:49;48.40;;;19.70;;
10801;SDS011;5453;50.852;7.102;2023-05-15T05:35:23;46.78;;;19.50;;
10801;SDS011;5453;50.852;7.102;2023-05-15T05:37:57;44.45;;;18.20;;
10801;SDS011;5453;50.852;7.102;2023-05-15T05:40:30;41.10;;;16.92;;
10801;SDS011;5453;50.852;7.102;2023-05-15T05:43:03;43.00;;;17.63;;
10801;SDS011;5453;50.852;7.102;2023-05-15T05:45:36;47.00;;;18.83;;
10801;SDS011;5453;50.852;7.102;2023-05-15T05:48:08;49.85;;;20.65;;
10801;SDS011;5453;50.852;7.102;2023-05-15T05:50:42;46.85;;;18.25;;
10801;SDS011;5453;50.852;7.102;2023-05-15T05:53:17;43.20;;;18.17;;
10801;SDS011;5453;50.852;7.102;2023-05-15T05:55:52;45.38;;;18.63;;
10801;SDS011;5453;50.852;7.102;2023-05-15T05:58:26;45.95;;;19.70;;
10801;SDS011;5453;50.852;7.102;2023-05-15T06:00:58;42.08;;;17.15;;
10801;SDS011;5453;50.852;7.102;2023-05-15T06:03:31;42.65;;;17.52;;
10801;SDS011;5453;50.852;7.102;2023-05-15T06:06:06;39.00;;;16.05;;
10801;SDS011;5453;50.852;7.102;2023-05-15T06:08:39;37.40;;;16.73;;
10801;SDS011;5453;50.852;7.102;2023-05-15T06:11:11;33.22;;;14.57;;
10801;SDS011;5453;50.852;7.102;2023-05-15T06:13:43;39.80;;;15.57;;
10801;SDS011;5453;50.852;7.102;2023-05-15T06:16:18;48.80;;;18.60;;
10801;SDS011;5453;50.852;7.102;2023-05-15T06:18:50;50.63;;;20.67;;
10801;SDS011;5453;50.852;7.102;2023-05-15T06:21:29;47.35;;;17.95;;
10801;SDS011;5453;50.852;7.102;2023-05-15T06:24:01;50.03;;;20.13;;
10801;SDS011;5453;50.852;7.102;2023-05-15T06:26:34;48.92;;;18.83;;
10801;SDS011;5453;50.852;7.102;2023-05-15T06:29:07;43.92;;;18.17;;
10801;SDS011;5453;50.852;7.102;2023-05-15T06:31:40;51.67;;;19.63;;
10801;SDS011;5453;50.852;7.102;2023-05-15T06:34:12;39.10;;;17.30;;
10801;SDS011;5453;50.852;7.102;2023-05-15T06:36:46;45.25;;;19.42;;
10801;SDS011;5453;50.852;7.102;2023-05-15T06:41:51;40.22;;;16.63;;
10801;SDS011;5453;50.852;7.102;2023-05-15T06:44:28;32.22;;;14.65;;
10801;SDS011;5453;50.852;7.102;2023-05-15T06:47:05;32.72;;;14.52;;
10801;SDS011;5453;50.852;7.102;2023-05-15T06:49:38;34.38;;;15.10;;
10801;SDS011;5453;50.852;7.102;2023-05-15T06:52:13;31.02;;;14.13;;
10801;SDS011;5453;50.852;7.102;2023-05-15T06:54:47;26.95;;;12.82;;
10801;SDS011;5453;50.852;7.102;2023-05-15T06:57:20;41.30;;;18.73;;
10801;SDS011;5453;50.852;7.102;2023-05-15T06:59:55;30.35;;;15.00;;
10801;SDS011;5453;50.852;7.102;2023-05-15T07:02:28;32.22;;;15.40;;
10801;SDS011;5453;50.852;7.102;2023-05-15T07:05:02;36.80;;;15.98;;
10801;SDS011;5453;50.852;7.102;2023-05-15T07:07:37;46.45;;;19.33;;
10801;SDS011;5453;50.852;7.102;2023-05-15T07:10:10;32.00;;;14.73;;
10801;SDS011;5453;50.852;7.102;2023-05-15T07:12:42;37.25;;;16.45;;
10801;SDS011;5453;50.852;7.102;2023-05-15T07:15:15;46.88;;;20.75;;
10801;SDS011;5453;50.852;7.102;2023-05-15T07:17:48;42.30;;;19.02;;
10801;SDS011;5453;50.852;7.102;2023-05-15T07:20:20;44.90;;;19.55;;
10801;SDS011;5453;50.852;7.102;2023-05-15T07:22:55;44.08;;;19.33;;
10801;SDS011;5453;50.852;7.102;2023-05-15T07:25:28;42.42;;;19.27;;
10801;SDS011;5453;50.852;7.102;2023-05-15T07:28:01;43.05;;;20.27;;
10801;SDS011;5453;50.852;7.102;2023-05-15T07:30:34;45.45;;;20.83;;
10801;SDS011;5453;50.852;7.102;2023-05-15T07:33:06;41.83;;;18.75;;
10801;SDS011;5453;50.852;7.102;2023-05-15T07:35:39;37.38;;;17.33;;
10801;SDS011;5453;50.852;7.102;2023-05-15T07:38:14;39.22;;;17.38;;
10801;SDS011;5453;50.852;7.102;2023-05-15T07:40:47;42.45;;;18.23;;
10801;SDS011;5453;50.852;7.102;2023-05-15T07:43:20;48.63;;;20.00;;
10801;SDS011;5453;50.852;7.102;2023-05-15T07:45:55;43.67;;;19.17;;
10801;SDS011;5453;50.852;7.102;2023-05-15T07:48:28;45.08;;;20.25;;
10801;SDS011;5453;50.852;7.102;2023-05-15T07:51:00;42.90;;;19.45;;
10801;SDS011;5453;50.852;7.102;2023-05-15T07:53:37;40.42;;;17.95;;
10801;SDS011;5453;50.852;7.102;2023-05-15T07:56:09;37.53;;;17.08;;
10801;SDS011;5453;50.852;7.102;2023-05-15T07:58:41;46.85;;;19.63;;
10801;SDS011;5453;50.852;7.102;2023-05-15T08:01:14;40.03;;;18.60;;
10801;SDS011;5453;50.852;7.102;2023-05-15T08:03:48;42.17;;;18.35;;
10801;SDS011;5453;50.852;7.102;2023-05-15T08:06:20;40.47;;;17.85;;
10801;SDS011;5453;50.852;7.102;2023-05-15T08:08:57;38.15;;;18.08;;
10801;SDS011;5453;50.852;7.102;2023-05-15T08:11:31;36.83;;;16.58;;
10801;SDS011;5453;50.852;7.102;2023-05-15T08:14:03;42.15;;;18.05;;
10801;SDS011;5453;50.852;7.102;2023-05-15T08:16:36;39.45;;;18.52;;
10801;SDS011;5453;50.852;7.102;2023-05-15T08:19:09;38.63;;;18.52;;
10801;SDS011;5453;50.852;7.102;2023-05-15T08:21:41;42.88;;;19.63;;
10801;SDS011;5453;50.852;7.102;2023-05-15T08:24:15;47.63;;;21.70;;
10801;SDS011;5453;50.852;7.102;2023-05-15T08:26:47;45.35;;;20.52;;
10801;SDS011;5453;50.852;7.102;2023-05-15T08:29:21;40.03;;;18.67;;
10801;SDS011;5453;50.852;7.102;2023-05-15T08:31:54;46.08;;;19.65;;
10801;SDS011;5453;50.852;7.102;2023-05-15T08:34:27;48.33;;;20.05;;
10801;SDS011;5453;50.852;7.102;2023-05-15T08:37:00;44.10;;;19.05;;
10801;SDS011;5453;50.852;7.102;2023-05-15T08:39:36;45.45;;;20.38;;
10801;SDS011;5453;50.852;7.102;2023-05-15T08:42:09;51.22;;;22.33;;
10801;SDS011;5453;50.852;7.102;2023-05-15T08:44:50;40.08;;;18.52;;
10801;SDS011;5453;50.852;7.102;2023-05-15T08:47:23;50.83;;;22.13;;
10801;SDS011;5453;50.852;7.102;2023-05-15T08:50:01;38.28;;;17.60;;
10801;SDS011;5453;50.852;7.102;2023-05-15T08:52:39;41.10;;;18.10;;
10801;SDS011;5453;50.852;7.102;2023-05-15T08:55:17;45.58;;;19.02;;
10801;SDS011;5453;50.852;7.102;2023-05-15T08:57:49;41.95;;;18.63;;
10801;SDS011;5453;50.852;7.102;2023-05-15T09:00:23;40.60;;;18.02;;
10801;SDS011;5453;50.852;7.102;2023-05-15T09:02:57;39.00;;;17.38;;
10801;SDS011;5453;50.852;7.102;2023-05-15T09:05:33;42.15;;;18.95;;
10801;SDS011;5453;50.852;7.102;2023-05-15T09:08:05;40.72;;;18.60;;
10801;SDS011;5453;50.852;7.102;2023-05-15T09:10:41;35.35;;;16.92;;
10801;SDS011;5453;50.852;7.102;2023-05-15T09:13:14;44.47;;;18.27;;
10801;SDS011;5453;50.852;7.102;2023-05-15T09:15:46;38.95;;;16.88;;
10801;SDS011;5453;50.852;7.102;2023-05-15T09:18:21;35.85;;;15.63;;
10801;SDS011;5453;50.852;7.102;2023-05-15T09:20:54;37.22;;;17.83;;
10801;SDS011;5453;50.852;7.102;2023-05-15T09:23:26;33.85;;;15.18;;
10801;SDS011;5453;50.852;7.102;2023-05-15T09:26:01;35.17;;;17.10;;
10801;SDS011;5453;50.852;7.102;2023-05-15T09:28:35;38.10;;;17.92;;
10801;SDS011;5453;50.852;7.102;2023-05-15T09:31:08;29.98;;;15.32;;
10801;SDS011;5453;50.852;7.102;2023-05-15T09:33:44;29.65;;;14.20;;
10801;SDS011;5453;50.852;7.102;2023-05-15T09:36:20;30.02;;;14.70;;
10801;SDS011;5453;50.852;7.102;2023-05-15T09:38:56;27.38;;;13.75;;
10801;SDS011;5453;50.852;7.102;2023-05-15T09:41:31;30.80;;;14.68;;
10801;SDS011;5453;50.852;7.102;2023-05-15T09:44:05;39.28;;;19.05;;
10801;SDS011;5453;50.852;7.102;2023-05-15T09:46:50;33.45;;;16.95;;
10801;SDS011;5453;50.852;7.102;2023-05-15T09:49:22;38.63;;;18.52;;
10801;SDS011;5453;50.852;7.102;2023-05-15T09:51:57;33.40;;;15.73;;
10801;SDS011;5453;50.852;7.102;2023-05-15T09:54:29;30.13;;;15.70;;
10801;SDS011;5453;50.852;7.102;2023-05-15T09:57:10;30.30;;;15.70;;
10801;SDS011;5453;50.852;7.102;2023-05-15T09:59:44;34.75;;;17.85;;
10801;SDS011;5453;50.852;7.102;2023-05-15T10:02:22;31.83;;;15.30;;
10801;SDS011;5453;50.852;7.102;2023-05-15T10:04:57;29.55;;;15.48;;
10801;SDS011;5453;50.852;7.102;2023-05-15T10:07:30;28.63;;;14.77;;
10801;SDS011;5453;50.852;7.102;2023-05-15T10:10:05;25.65;;;13.15;;
10801;SDS011;5453;50.852;7.102;2023-05-15T10:12:40;23.52;;;12.52;;
10801;SDS011;5453;50.852;7.102;2023-05-15T10:15:12;21.08;;;12.10;;
10801;SDS011;5453;50.852;7.102;2023-05-15T10:17:46;20.88;;;10.77;;
10801;SDS011;5453;50.852;7.102;2023-05-15T10:20:20;18.92;;;11.02;;
10801;SDS011;5453;50.852;7.102;2023-05-15T10:22:55;21.02;;;12.13;;
10801;SDS011;5453;50.852;7.102;2023-05-15T10:25:32;20.67;;;11.57;;
10801;SDS011;5453;50.852;7.102;2023-05-15T10:28:10;21.75;;;12.40;;
10801;SDS011;5453;50.852;7.102;2023-05-15T10:30:44;18.00;;;10.15;;
10801;SDS011;5453;50.852;7.102;2023-05-15T10:33:17;16.17;;;9.60;;
10801;SDS011;5453;50.852;7.102;2023-05-15T10:35:51;18.60;;;10.48;;
10801;SDS011;5453;50.852;7.102;2023-05-15T10:38:25;16.90;;;10.18;;
10801;SDS011;5453;50.852;7.102;2023-05-15T10:40:58;16.75;;;10.05;;
10801;SDS011;5453;50.852;7.102;2023-05-15T10:43:35;15.88;;;9.75;;
10801;SDS011;5453;50.852;7.102;2023-05-15T10:46:11;16.55;;;9.65;;
10801;SDS011;5453;50.852;7.102;2023-05-15T10:48:44;14.32;;;9.05;;
10801;SDS011;5453;50.852;7.102;2023-05-15T10:51:18;16.13;;;9.27;;
10801;SDS011;5453;50.852;7.102;2023-05-15T10:53:58;17.98;;;10.02;;
10801;SDS011;5453;50.852;7.102;2023-05-15T10:56:33;14.88;;;9.00;;
10801;SDS011;5453;50.852;7.102;2023-05-15T10:59:10;17.05;;;10.65;;
10801;SDS011;5453;50.852;7.102;2023-05-15T11:01:42;15.30;;;9.35;;
10801;SDS011;5453;50.852;7.102;2023-05-15T11:04:15;15.02;;;9.07;;
10801;SDS011;5453;50.852;7.102;2023-05-15T11:06:49;16.00;;;9.55;;
10801;SDS011;5453;50.852;7.102;2023-05-15T11:09:42;14.75;;;8.85;;
10801;SDS011;5453;50.852;7.102;2023-05-15T11:12:15;20.10;;;10.38;;
10801;SDS011;5453;50.852;7.102;2023-05-15T11:18:01;14.95;;;8.18;;
10801;SDS011;5453;50.852;7.102;2023-05-15T11:20:39;14.52;;;7.85;;
10801;SDS011;5453;50.852;7.102;2023-05-15T11:23:12;16.40;;;9.93;;
10801;SDS011;5453;50.852;7.102;2023-05-15T11:25:46;15.00;;;9.30;;
10801;SDS011;5453;50.852;7.102;2023-05-15T11:28:24;13.35;;;8.25;;
10801;SDS011;5453;50.852;7.102;2023-05-15T11:31:05;14.25;;;7.75;;
10801;SDS011;5453;50.852;7.102;2023-05-15T11:33:37;12.23;;;6.95;;
10801;SDS011;5453;50.852;7.102;2023-05-15T11:36:11;12.77;;;7.70;;
10801;SDS011;5453;50.852;7.102;2023-05-15T11:38:47;13.68;;;7.53;;
10801;SDS011;5453;50.852;7.102;2023-05-15T11:41:21;15.40;;;8.45;;
10801;SDS011;5453;50.852;7.102;2023-05-15T11:43:59;12.10;;;7.05;;
10801;SDS011;5453;50.852;7.102;2023-05-15T11:46:34;11.27;;;6.28;;
10801;SDS011;5453;50.852;7.102;2023-05-15T11:49:07;12.02;;;6.45;;
10801;SDS011;5453;50.852;7.102;2023-05-15T11:51:41;11.38;;;6.90;;
10801;SDS011;5453;50.852;7.102;2023-05-15T11:54:14;10.32;;;5.75;;
10801;SDS011;5453;50.852;7.102;2023-05-15T11:56:48;8.48;;;5.13;;
10801;SDS011;5453;50.852;7.102;2023-05-15T11:59:20;10.48;;;5.07;;
10801;SDS011;5453;50.852;7.102;2023-05-15T12:01:55;6.88;;;4.45;;
10801;SDS011;5453;50.852;7.102;2023-05-15T12:04:27;8.48;;;5.38;;
10801;SDS011;5453;50.852;7.102;2023-05-15T12:07:00;7.90;;;4.43;;
10801;SDS011;5453;50.852;7.102;2023-05-15T12:09:33;8.43;;;5.07;;
10801;SDS011;5453;50.852;7.102;2023-05-15T12:12:06;11.40;;;5.90;;
10801;SDS011;5453;50.852;7.102;2023-05-15T12:14:46;11.73;;;5.90;;
10801;SDS011;5453;50.852;7.102;2023-05-15T12:17:20;8.65;;;4.93;;
10801;SDS011;5453;50.852;7.102;2023-05-15T12:19:53;9.90;;;5.63;;
10801;SDS011;5453;50.852;7.102;2023-05-15T12:22:28;9.20;;;5.05;;
10801;SDS011;5453;50.852;7.102;2023-05-15T12:25:06;8.15;;;5.15;;
10801;SDS011;5453;50.852;7.102;2023-05-15T12:27:41;7.75;;;4.35;;
10801;SDS011;5453;50.852;7.102;2023-05-15T12:30:14;8.65;;;5.05;;
10801;SDS011;5453;50.852;7.102;2023-05-15T12:32:51;6.93;;;4.32;;
10801;SDS011;5453;50.852;7.102;2023-05-15T12:35:23;7.22;;;4.43;;
10801;SDS011;5453;50.852;7.102;2023-05-15T12:37:57;7.50;;;4.55;;
10801;SDS011;5453;50.852;7.102;2023-05-15T12:40:31;6.72;;;4.53;;
10801;SDS011;5453;50.852;7.102;2023-05-15T12:43:05;7.22;;;4.35;;
10801;SDS011;5453;50.852;7.102;2023-05-15T12:45:38;7.07;;;4.07;;
10801;SDS011;5453;50.852;7.102;2023-05-15T12:48:13;6.40;;;3.92;;
10801;SDS011;5453;50.852;7.102;2023-05-15T12:50:46;6.80;;;4.47;;
10801;SDS011;5453;50.852;7.102;2023-05-15T12:53:21;8.10;;;4.25;;
10801;SDS011;5453;50.852;7.102;2023-05-15T12:55:54;5.80;;;3.50;;
10801;SDS011;5453;50.852;7.102;2023-05-15T12:58:26;5.03;;;2.95;;
10801;SDS011;5453;50.852;7.102;2023-05-15T13:00:59;5.78;;;3.58;;
10801;SDS011;5453;50.852;7.102;2023-05-15T13:03:34;5.80;;;3.60;;
10801;SDS011;5453;50.852;7.102;2023-05-15T13:06:06;9.20;;;4.43;;
10801;SDS011;5453;50.852;7.102;2023-05-15T13:08:40;5.80;;;3.53;;
10801;SDS011;5453;50.852;7.102;2023-05-15T13:11:13;6.35;;;4.00;;
10801;SDS011;5453;50.852;7.102;2023-05-15T13:13:48;6.25;;;3.20;;
10801;SDS011;5453;50.852;7.102;2023-05-15T13:16:21;6.57;;;3.53;;
10801;SDS011;5453;50.852;7.102;2023-05-15T13:18:57;6.75;;;3.47;;
10801;SDS011;5453;50.852;7.102;2023-05-15T13:21:29;8.63;;;4.85;;
10801;SDS011;5453;50.852;7.102;2023-05-15T13:24:02;7.18;;;4.07;;
10801;SDS011;5453;50.852;7.102;2023-05-15T13:26:35;7.22;;;4.18;;
10801;SDS011;5453;50.852;7.102;2023-05-15T13:29:10;7.55;;;4.32;;
10801;SDS011;5453;50.852;7.102;2023-05-15T13:31:42;8.35;;;4.47;;
10801;SDS011;5453;50.852;7.102;2023-05-15T13:34:17;6.43;;;3.70;;
10801;SDS011;5453;50.852;7.102;2023-05-15T13:36:50;8.30;;;3.42;;
10801;SDS011;5453;50.852;7.102;2023-05-15T13:39:22;5.30;;;3.33;;
10801;SDS011;5453;50.852;7.102;2023-05-15T13:41:56;6.03;;;3.78;;
10801;SDS011;5453;50.852;7.102;2023-05-15T13:44:29;4.60;;;3.20;;
10801;SDS011;5453;50.852;7.102;2023-05-15T13:47:01;6.38;;;3.95;;
10801;SDS011;5453;50.852;7.102;2023-05-15T13:49:35;5.60;;;3.47;;
10801;SDS011;5453;50.852;7.102;2023-05-15T13:52:07;6.55;;;3.60;;
10801;SDS011;5453;50.852;7.102;2023-05-15T13:54:40;10.23;;;5.88;;
10801;SDS011;5453;50.852;7.102;2023-05-15T13:57:12;7.65;;;3.90;;
10801;SDS011;5453;50.852;7.102;2023-05-15T13:59:48;5.45;;;3.70;;
10801;SDS011;5453;50.852;7.102;2023-05-15T14:02:20;7.35;;;3.90;;
10801;SDS011;5453;50.852;7.102;2023-05-15T14:04:56;7.50;;;4.30;;
10801;SDS011;5453;50.852;7.102;2023-05-15T14:07:29;8.80;;;5.15;;
10801;SDS011;5453;50.852;7.102;2023-05-15T14:10:02;6.93;;;4.25;;
10801;SDS011;5453;50.852;7.102;2023-05-15T14:12:35;5.38;;;3.00;;
10801;SDS011;5453;50.852;7.102;2023-05-15T14:15:09;7.00;;;3.25;;
10801;SDS011;5453;50.852;7.102;2023-05-15T14:17:42;4.93;;;2.92;;
10801;SDS011;5453;50.852;7.102;2023-05-15T14:20:17;5.40;;;3.47;;
10801;SDS011;5453;50.852;7.102;2023-05-15T14:22:50;5.70;;;3.30;;
10801;SDS011;5453;50.852;7.102;2023-05-15T14:25:25;9.10;;;4.82;;
10801;SDS011;5453;50.852;7.102;2023-05-15T14:27:57;8.52;;;4.70;;
10801;SDS011;5453;50.852;7.102;2023-05-15T14:30:30;6.65;;;4.05;;
10801;SDS011;5453;50.852;7.102;2023-05-15T14:33:02;5.43;;;3.42;;
10801;SDS011;5453;50.852;7.102;2023-05-15T14:35:39;5.88;;;3.60;;
10801;SDS011;5453;50.852;7.102;2023-05-15T14:38:11;5.45;;;3.15;;
10801;SDS011;5453;50.852;7.102;2023-05-15T14:40:43;6.20;;;3.25;;
10801;SDS011;5453;50.852;7.102;2023-05-15T14:43:15;6.68;;;3.90;;
10801;SDS011;5453;50.852;7.102;2023-05-15T14:45:48;4.97;;;3.40;;
10801;SDS011;5453;50.852;7.102;2023-05-15T14:48:21;5.55;;;3.20;;
10801;SDS011;5453;50.852;7.102;2023-05-15T14:50:55;6.15;;;4.15;;
10801;SDS011;5453;50.852;7.102;2023-05-15T14:53:28;7.68;;;4.05;;
10801;SDS011;5453;50.852;7.102;2023-05-15T14:56:01;11.75;;;6.38;;
10801;SDS011;5453;50.852;7.102;2023-05-15T14:58:33;8.55;;;5.32;;
10801;SDS011;5453;50.852;7.102;2023-05-15T15:01:08;10.48;;;5.97;;
10801;SDS011;5453;50.852;7.102;2023-05-15T15:03:40;8.30;;;4.78;;
10801;SDS011;5453;50.852;7.102;2023-05-15T15:06:14;15.02;;;8.98;;
10801;SDS011;5453;50.852;7.102;2023-05-15T15:08:48;13.80;;;7.72;;
10801;SDS011;5453;50.852;7.102;2023-05-15T15:11:20;14.82;;;7.63;;
10801;SDS011;5453;50.852;7.102;2023-05-15T15:13:53;14.25;;;7.97;;
10801;SDS011;5453;50.852;7.102;2023-05-15T15:16:25;14.98;;;7.47;;
10801;SDS011;5453;50.852;7.102;2023-05-15T15:18:59;11.18;;;6.93;;
10801;SDS011;5453;50.852;7.102;2023-05-15T15:21:32;13.25;;;7.32;;
10801;SDS011;5453;50.852;7.102;2023-05-15T15:24:06;15.95;;;9.07;;
10801;SDS011;5453;50.852;7.102;2023-05-15T15:26:40;14.38;;;7.55;;
10801;SDS011;5453;50.852;7.102;2023-05-15T15:29:14;13.65;;;7.40;;
10801;SDS011;5453;50.852;7.102;2023-05-15T15:31:47;12.68;;;6.80;;
10801;SDS011;5453;50.852;7.102;2023-05-15T15:34:20;13.45;;;8.20;;
10801;SDS011;5453;50.852;7.102;2023-05-15T15:36:55;13.48;;;7.32;;